Time;durP1;ratioP1;P1;durP2;ratioP2;P2;SDS_P1;SDS_P2;PMS_P1;PMS_P2;Temp;Humidity;BMP_temperature;BMP_pressure;BME280_temperature;BME280_humidity;BME280_pressure;Samples;Min_cycle;Max_cycle;Signal;HPM_P1;HPM_P2
2023/06/07 00:00:36;;;;;;;2.20;1.33;;;;;;;36.59;18.26;99878.44;5019389;28;20054;-73
2023/06/07 00:03:09;;;;;;;2.30;1.52;;;;;;;36.52;17.39;99872.75;5021482;28;20053;-74
2023/06/07 00:05:38;;;;;;;6.43;1.35;;;;;;;36.48;16.95;99866.78;5021353;28;20128;-74
2023/06/07 00:08:08;;;;;;;6.20;1.33;;;;;;;36.44;17.32;99875.28;5027064;28;20630;-74
2023/06/07 00:10:36;;;;;;;1.67;1.05;;;;;;;36.48;18.70;99872.16;5021034;28;20048;-75
2023/06/07 00:13:05;;;;;;;4.07;1.40;;;;;;;36.56;18.35;99867.91;5017057;28;20046;-74
2023/06/07 00:15:38;;;;;;;5.35;1.15;;;;;;;36.58;18.36;99868.59;5020958;28;20053;-73
2023/06/07 00:18:07;;;;;;;3.47;1.88;;;;;;;36.56;16.93;99857.13;5026613;28;20049;-73
2023/06/07 00:20:36;;;;;;;4.72;1.70;;;;;;;36.52;19.17;99855.72;5019974;28;20103;-73
2023/06/07 00:23:05;;;;;;;2.95;1.42;;;;;;;36.45;17.47;99848.22;5027920;28;20115;-73
2023/06/07 00:25:36;;;;;;;4.00;1.63;;;;;;;36.34;17.84;99842.13;5018293;28;20144;-73
2023/06/07 00:28:05;;;;;;;2.05;1.23;;;;;;;36.35;19.15;99846.50;5009034;28;20045;-71
2023/06/07 00:30:34;;;;;;;4.22;1.70;;;;;;;36.24;18.00;99843.00;5006968;28;20085;-72
2023/06/07 00:33:04;;;;;;;6.30;1.40;;;;;;;36.17;18.31;99841.88;5008471;28;20049;-71
2023/06/07 00:35:32;;;;;;;3.13;1.20;;;;;;;36.21;19.23;99842.41;5009159;28;20062;-72
2023/06/07 00:38:01;;;;;;;3.80;1.50;;;;;;;36.22;19.85;99836.06;5016766;28;20470;-71
2023/06/07 00:40:30;;;;;;;4.85;1.63;;;;;;;36.16;19.29;99829.38;5008081;28;20058;-72
2023/06/07 00:42:58;;;;;;;6.35;1.50;;;;;;;36.11;21.15;99826.25;5010074;28;20052;-72
2023/06/07 00:45:27;;;;;;;2.67;1.52;;;;;;;36.06;20.97;99831.19;5003908;28;20049;-71
2023/06/07 00:47:56;;;;;;;3.22;1.23;;;;;;;36.05;21.03;99832.19;5016691;28;20053;-72
2023/06/07 00:50:28;;;;;;;3.90;1.42;;;;;;;35.96;18.97;99822.25;5007650;28;20115;-72
2023/06/07 00:52:57;;;;;;;7.28;1.42;;;;;;;35.92;19.92;99826.22;5001174;28;20050;-72
2023/06/07 00:55:26;;;;;;;3.13;1.20;;;;;;;35.88;21.54;99827.50;5005887;28;20062;-71
2023/06/07 00:57:55;;;;;;;3.30;1.63;;;;;;;35.85;19.52;99817.84;5002147;28;20485;-71
2023/06/07 01:00:27;;;;;;;3.22;1.50;;;;;;;35.77;18.79;99817.72;5007081;28;20196;-72
2023/06/07 01:02:56;;;;;;;4.75;1.58;;;;;;;35.71;19.19;99824.50;5008529;28;20547;-71
2023/06/07 01:05:27;;;;;;;3.88;1.55;;;;;;;35.65;18.74;99817.84;5005749;28;20046;-72
2023/06/07 01:07:56;;;;;;;2.25;1.40;;;;;;;35.66;18.45;99813.28;5007237;28;20045;-71
2023/06/07 01:10:29;;;;;;;4.82;1.55;;;;;;;35.65;18.88;99808.94;5005837;28;20049;-73
2023/06/07 01:12:58;;;;;;;3.05;1.38;;;;;;;35.62;18.60;99815.44;5002156;28;20046;-72
2023/06/07 01:15:28;;;;;;;5.22;1.45;;;;;;;35.58;20.08;99805.06;5000593;28;20156;-73
2023/06/07 01:17:57;;;;;;;4.47;1.55;;;;;;;35.56;20.47;99805.19;5003005;28;20046;-71
2023/06/07 01:20:32;;;;;;;3.83;1.85;;;;;;;35.46;19.29;99804.31;5001790;28;20061;-73
2023/06/07 01:23:05;;;;;;;5.13;1.70;;;;;;;35.41;20.09;99802.03;5008403;28;20132;-73
2023/06/07 01:25:36;;;;;;;1.67;1.30;;;;;;;35.39;19.96;99808.53;5010272;28;20061;-72
2023/06/07 01:28:07;;;;;;;5.87;1.70;;;;;;;35.38;19.63;99806.84;5024688;28;20041;-72
2023/06/07 01:30:37;;;;;;;3.90;1.50;;;;;;;35.40;20.19;99807.56;5020788;28;20493;-72
2023/06/07 01:33:07;;;;;;;5.60;1.52;;;;;;;35.39;19.62;99805.84;5020699;28;20053;-73
2023/06/07 01:35:36;;;;;;;3.65;1.27;;;;;;;35.37;19.98;99807.81;5026886;28;20101;-72
2023/06/07 01:38:05;;;;;;;1.85;1.30;;;;;;;35.31;19.94;99800.31;5028770;28;20550;-72
2023/06/07 01:40:38;;;;;;;2.97;1.35;;;;;;;35.23;19.39;99796.47;5022669;28;20065;-72
2023/06/07 01:43:06;;;;;;;3.13;1.30;;;;;;;35.19;21.39;99802.28;5026523;28;20518;-72
2023/06/07 01:45:37;;;;;;;3.45;1.27;;;;;;;35.13;20.50;99808.19;5025413;28;20053;-72
2023/06/07 01:48:06;;;;;;;13.02;2.50;;;;;;;35.05;21.31;99806.16;5028331;28;20052;-72
2023/06/07 01:50:35;;;;;;;2.47;1.60;;;;;;;35.00;21.23;99808.38;5025596;28;20053;-71
2023/06/07 01:53:03;;;;;;;4.95;2.10;;;;;;;34.93;23.33;99817.97;5026131;28;20127;-72
2023/06/07 01:55:32;;;;;;;5.13;2.78;;;;;;;34.81;22.87;99815.34;5028281;28;20046;-72
2023/06/07 01:58:15;;;;;;;3.30;2.00;;;;;;;34.69;23.53;99803.00;5021396;28;20056;-72
2023/06/07 02:00:51;;;;;;;2.00;1.52;;;;;;;34.57;22.41;99804.88;5030383;28;20050;-72
2023/06/07 02:03:28;;;;;;;2.65;1.60;;;;;;;34.49;21.78;99809.22;5029231;28;20057;-72
2023/06/07 02:06:02;;;;;;;4.88;2.00;;;;;;;34.48;21.44;99804.84;5026353;28;20488;-72
2023/06/07 02:08:34;;;;;;;3.22;1.40;;;;;;;34.45;22.74;99810.44;5026506;28;20474;-72
2023/06/07 02:11:02;;;;;;;;;;;;;;;34.37;22.82;99809.28;5028432;28;20057;-72
2023/06/07 02:13:36;;;;;;;3.28;1.65;;;;;;;34.20;22.04;99809.84;5030225;28;19925;-71
2023/06/07 02:16:11;;;;;;;4.50;1.80;;;;;;;34.03;22.16;99813.09;5027121;28;20712;-71
2023/06/07 02:18:41;;;;;;;3.25;1.38;;;;;;;33.92;22.05;99817.50;5028291;28;20045;-71
2023/06/07 02:21:10;;;;;;;4.07;1.42;;;;;;;33.83;22.82;99815.56;5025702;28;20084;-71
2023/06/07 02:23:41;;;;;;;4.28;1.67;;;;;;;33.72;24.09;99816.50;5024208;28;20046;-71
2023/06/07 02:26:09;;;;;;;2.70;1.38;;;;;;;33.63;23.99;99819.03;5028238;28;20049;-71
2023/06/07 02:28:40;;;;;;;3.22;1.65;;;;;;;33.51;24.38;99824.44;5024194;28;20131;-71
2023/06/07 02:31:08;;;;;;;4.85;1.50;;;;;;;33.44;24.72;99833.94;5026060;28;20046;-71
2023/06/07 02:33:37;;;;;;;2.83;1.73;;;;;;;33.35;23.91;99830.19;5025483;28;20049;-71
2023/06/07 02:36:08;;;;;;;4.07;1.80;;;;;;;33.27;24.25;99834.44;5026304;28;20192;-71
2023/06/07 02:38:37;;;;;;;4.28;2.10;;;;;;;33.15;23.38;99833.59;5025319;28;20798;-71
2023/06/07 02:41:05;;;;;;;4.72;2.30;;;;;;;33.03;23.54;99835.38;5026077;28;20460;-71
2023/06/07 02:43:34;;;;;;;5.05;1.83;;;;;;;32.93;24.37;99837.09;5028794;28;20046;-71
2023/06/07 02:46:06;;;;;;;3.17;1.63;;;;;;;32.85;23.59;99844.84;5025305;28;20640;-71
2023/06/07 02:48:35;;;;;;;4.80;1.50;;;;;;;32.76;25.19;99849.97;5027326;28;20140;-71
2023/06/07 02:51:03;;;;;;;3.30;1.80;;;;;;;32.63;24.16;99843.88;5026827;28;20048;-72
2023/06/07 02:53:32;;;;;;;5.32;1.63;;;;;;;32.57;24.77;99852.34;5025546;28;20057;-72
2023/06/07 02:56:01;;;;;;;3.05;1.88;;;;;;;32.45;24.54;99851.44;5027333;28;20049;-71
2023/06/07 02:58:30;;;;;;;2.75;1.73;;;;;;;32.29;25.13;99857.09;5025008;28;20045;-72
2023/06/07 03:01:00;;;;;;;6.55;2.00;;;;;;;32.17;25.58;99863.41;5026788;28;20037;-72
2023/06/07 03:03:30;;;;;;;3.65;2.08;;;;;;;32.04;25.19;99855.41;5028442;28;20045;-72
2023/06/07 03:05:59;;;;;;;5.57;1.85;;;;;;;31.93;25.31;99866.91;5025269;28;20045;-71
2023/06/07 03:08:29;;;;;;;3.63;1.80;;;;;;;31.84;26.31;99867.59;5023330;28;20537;-72
2023/06/07 03:10:58;;;;;;;3.65;1.80;;;;;;;31.77;26.35;99874.31;5025455;28;20067;-71
2023/06/07 03:13:27;;;;;;;5.18;1.88;;;;;;;31.66;25.13;99882.31;5027729;28;20057;-71
2023/06/07 03:15:55;;;;;;;4.80;2.15;;;;;;;31.56;25.22;99874.06;5025475;28;20450;-72
2023/06/07 03:18:24;;;;;;;4.68;2.03;;;;;;;31.46;23.85;99878.38;5025624;28;20050;-71
2023/06/07 03:20:56;;;;;;;5.22;2.17;;;;;;;31.33;28.04;99867.66;5026911;28;20438;-72
2023/06/07 03:23:25;;;;;;;5.95;2.40;;;;;;;31.29;26.22;99879.53;5026491;28;20061;-71
2023/06/07 03:25:56;;;;;;;3.60;1.90;;;;;;;31.17;26.39;99869.72;5020341;28;20053;-72
2023/06/07 03:28:24;;;;;;;4.38;1.90;;;;;;;31.03;26.72;99863.53;5025358;28;20053;-72
2023/06/07 03:30:53;;;;;;;8.10;1.90;;;;;;;30.89;25.12;99867.16;5025633;28;20504;-71
2023/06/07 03:33:21;;;;;;;2.97;1.90;;;;;;;30.78;25.34;99871.50;5024386;28;20057;-72
2023/06/07 03:35:50;;;;;;;2.72;1.92;;;;;;;30.67;26.62;99865.09;5023599;28;20050;-72
2023/06/07 03:38:20;;;;;;;3.30;2.17;;;;;;;30.55;25.90;99876.59;5021030;28;20063;-71
2023/06/07 03:40:49;;;;;;;5.25;2.63;;;;;;;30.43;26.14;99872.94;5017306;28;20049;-71
2023/06/07 03:43:27;;;;;;;;;;;;;;;;;;;;;
2023/06/07 03:45:56;;;;;;;4.18;2.03;;;;;;;30.21;26.99;99876.16;5022105;28;20496;-73
2023/06/07 03:48:24;;;;;;;5.78;1.80;;;;;;;30.12;26.52;99890.09;5025570;28;20715;-73
2023/06/07 03:50:53;;;;;;;5.65;2.00;;;;;;;30.00;26.70;99890.91;5022757;28;20114;-73
2023/06/07 03:53:31;;;;;;;3.67;1.75;;;;;;;29.84;26.89;99896.38;5023313;28;20068;-72
2023/06/07 03:56:00;;;;;;;6.15;2.03;;;;;;;29.73;26.75;99894.41;5024026;28;20597;-72
2023/06/07 03:58:29;;;;;;;5.72;2.33;;;;;;;29.60;25.64;99893.47;5019508;28;20061;-73
2023/06/07 04:00:57;;;;;;;4.90;1.60;;;;;;;29.49;28.14;99898.59;5025118;28;20049;-72
2023/06/07 04:03:27;;;;;;;2.97;1.67;;;;;;;29.34;28.96;99898.59;5018301;28;20170;-73
2023/06/07 04:05:56;;;;;;;4.70;1.75;;;;;;;29.21;27.02;99901.19;5015807;28;20053;-72
2023/06/07 04:08:26;;;;;;;3.00;1.63;;;;;;;29.09;27.29;99907.28;5017187;28;20053;-72
2023/06/07 04:10:55;;;;;;;7.78;2.42;;;;;;;29.01;27.29;99912.16;5016492;28;20053;-72
2023/06/07 04:13:24;;;;;;;10.32;2.33;;;;;;;28.90;27.90;99917.28;5022163;28;20495;-73
2023/06/07 04:15:52;;;;;;;4.20;2.00;;;;;;;28.78;27.66;99917.06;5015890;28;20564;-73
2023/06/07 04:18:21;;;;;;;5.85;2.00;;;;;;;28.67;26.91;99913.31;5022075;28;20049;-72
2023/06/07 04:20:50;;;;;;;4.13;1.80;;;;;;;28.58;27.58;99917.38;5023803;28;20510;-72
2023/06/07 04:23:18;;;;;;;3.53;1.65;;;;;;;28.50;27.15;99923.16;5026582;28;20049;-72
2023/06/07 04:25:49;;;;;;;6.93;1.73;;;;;;;28.42;27.33;99922.69;5018535;28;20049;-71
2023/06/07 04:28:23;;;;;;;6.60;1.70;;;;;;;28.36;26.88;99917.75;5023253;28;20049;-73
2023/06/07 04:30:53;;;;;;;2.50;1.50;;;;;;;28.28;27.75;99920.00;5021458;28;20055;-72
2023/06/07 04:33:23;;;;;;;5.00;1.60;;;;;;;28.19;26.47;99922.22;5021406;28;20145;-73
2023/06/07 04:35:52;;;;;;;4.90;1.90;;;;;;;28.13;27.16;99919.94;5024327;28;20149;-72
2023/06/07 04:38:21;;;;;;;4.15;1.70;;;;;;;28.05;27.37;99918.66;5024125;28;20049;-71
2023/06/07 04:40:52;;;;;;;5.45;1.77;;;;;;;27.96;27.88;99922.66;5017762;28;20068;-72
2023/06/07 04:43:20;;;;;;;2.53;1.65;;;;;;;27.89;28.81;99923.97;5024259;28;20060;-73
2023/06/07 04:45:53;;;;;;;3.97;2.00;;;;;;;27.82;28.17;99918.09;5018342;28;20065;-72
2023/06/07 04:48:24;;;;;;;2.40;1.50;;;;;;;27.74;28.73;99923.84;5020974;28;20056;-73
2023/06/07 04:50:52;;;;;;;4.55;1.80;;;;;;;27.68;28.84;99924.16;5019386;28;20045;-73
2023/06/07 04:53:21;;;;;;;3.88;1.95;;;;;;;27.63;28.52;99928.03;5012843;28;20053;-74
2023/06/07 04:55:52;;;;;;;3.67;1.50;;;;;;;27.55;28.79;99923.97;5018250;28;20049;-72
2023/06/07 04:58:21;;;;;;;4.00;2.07;;;;;;;27.52;28.36;99928.59;5022637;28;20492;-72
2023/06/07 05:00:51;;;;;;;4.57;1.88;;;;;;;27.47;28.82;99931.50;5029213;28;20490;-72
2023/06/07 05:03:22;;;;;;;5.32;2.15;;;;;;;27.43;29.94;99937.91;5028210;28;20116;-71
2023/06/07 05:05:50;;;;;;;5.60;2.13;;;;;;;27.35;29.24;99926.84;5027777;28;20049;-70
2023/06/07 05:08:20;;;;;;;3.90;2.00;;;;;;;27.25;29.34;99934.44;5029756;28;20576;-72
2023/06/07 05:10:48;;;;;;;4.15;1.95;;;;;;;27.13;29.84;99938.56;5027106;28;20079;-71
2023/06/07 05:13:19;;;;;;;3.38;1.60;;;;;;;27.07;30.08;99944.19;5028484;28;20064;-73
2023/06/07 05:15:50;;;;;;;2.72;1.50;;;;;;;27.06;29.49;99950.44;5029535;28;20050;-74
2023/06/07 05:18:19;;;;;;;4.82;1.98;;;;;;;26.98;31.44;99944.66;5030053;28;20156;-73
2023/06/07 05:20:50;;;;;;;2.17;1.55;;;;;;;26.94;29.93;99954.59;5018531;28;20046;-73
2023/06/07 05:23:19;;;;;;;2.90;1.70;;;;;;;26.86;32.41;99946.16;5030998;28;20045;-72
2023/06/07 05:25:48;;;;;;;6.30;1.90;;;;;;;26.78;31.35;99952.78;5030698;28;20129;-73
2023/06/07 05:28:18;;;;;;;4.35;1.55;;;;;;;26.69;29.47;99949.69;5030662;28;20614;-74
2023/06/07 05:30:48;;;;;;;3.25;1.80;;;;;;;26.65;28.42;99955.22;5025399;28;20427;-74
2023/06/07 05:33:16;;;;;;;3.78;1.60;;;;;;;26.62;32.77;99958.88;5032976;28;20053;-73
2023/06/07 05:35:46;;;;;;;3.25;1.70;;;;;;;26.47;30.48;99965.75;5031491;28;20042;-72
2023/06/07 05:38:15;;;;;;;4.22;1.77;;;;;;;26.38;31.68;99976.81;5026867;28;20044;-71
2023/06/07 05:40:44;;;;;;;2.55;1.58;;;;;;;26.29;30.50;99974.59;5031558;28;20638;-71
2023/06/07 05:43:15;;;;;;;3.90;1.77;;;;;;;26.24;30.60;99980.13;5026640;28;20042;-70
2023/06/07 05:45:45;;;;;;;3.88;1.85;;;;;;;26.20;31.81;99986.50;5027512;28;20096;-71
2023/06/07 05:48:14;;;;;;;6.97;1.98;;;;;;;26.15;30.94;99990.31;5025753;28;20041;-73
2023/06/07 05:50:42;;;;;;;3.22;1.75;;;;;;;26.08;34.61;99995.91;5021212;28;20498;-72
2023/06/07 05:53:15;;;;;;;5.05;2.17;;;;;;;25.94;31.64;99994.84;5023958;28;20511;-72
2023/06/07 05:55:45;;;;;;;6.70;2.15;;;;;;;25.84;32.25;100004.97;5022046;28;20047;-72
2023/06/07 05:58:13;;;;;;;4.07;1.95;;;;;;;25.72;32.36;100001.06;5030501;28;20049;-73
2023/06/07 06:00:44;;;;;;;4.88;2.03;;;;;;;25.63;33.09;100005.03;5022075;28;20049;-73
2023/06/07 06:03:20;;;;;;;5.25;1.90;;;;;;;25.52;35.89;100012.59;5024070;28;20045;-72
2023/06/07 06:05:48;;;;;;;3.47;1.58;;;;;;;25.44;34.67;100020.84;5029947;28;20588;-72
2023/06/07 06:08:17;;;;;;;3.92;1.85;;;;;;;25.39;35.65;100017.53;5032381;28;20041;-72
2023/06/07 06:10:46;;;;;;;5.68;2.05;;;;;;;25.31;34.03;100018.81;5024893;28;20140;-72
2023/06/07 06:13:17;;;;;;;5.28;2.03;;;;;;;25.14;34.45;100017.72;5031878;28;20053;-72
2023/06/07 06:15:45;;;;;;;4.38;2.00;;;;;;;25.03;34.67;100022.59;5024432;28;20056;-73
2023/06/07 06:18:16;;;;;;;3.30;2.05;;;;;;;24.95;35.04;100024.72;5026683;28;20053;-72
2023/06/07 06:20:44;;;;;;;5.10;1.90;;;;;;;24.88;34.82;100030.25;5021969;28;20529;-72
2023/06/07 06:23:13;;;;;;;3.83;1.83;;;;;;;24.80;35.36;100028.84;5029835;28;20420;-73
2023/06/07 06:25:41;;;;;;;2.78;1.75;;;;;;;24.71;36.76;100024.78;5034379;28;20061;-73
2023/06/07 06:28:10;;;;;;;2.80;1.63;;;;;;;24.62;36.23;100033.09;5033618;28;20049;-72
2023/06/07 06:30:38;;;;;;;3.40;1.90;;;;;;;24.53;35.84;100020.22;5020369;28;20091;-71
2023/06/07 06:33:07;;;;;;;4.97;2.20;;;;;;;24.46;36.50;100022.22;5028886;28;20696;-72
2023/06/07 06:35:37;;;;;;;4.53;2.08;;;;;;;24.36;35.74;100023.53;5030209;28;20046;-72
2023/06/07 06:38:11;;;;;;;2.65;1.80;;;;;;;24.26;37.35;100030.97;5030924;28;20057;-72
2023/06/07 06:40:40;;;;;;;3.58;1.77;;;;;;;24.11;38.22;100031.53;5025699;28;20045;-73
2023/06/07 06:43:08;;;;;;;3.58;1.98;;;;;;;24.00;39.60;100027.50;5023729;28;20068;-72
2023/06/07 06:45:37;;;;;;;6.75;1.85;;;;;;;23.90;39.29;100031.41;5026851;28;20041;-72
2023/06/07 06:48:16;;;;;;;3.00;1.80;;;;;;;23.79;41.45;100028.31;5022309;28;20411;-72
2023/06/07 06:50:49;;;;;;;4.30;1.70;;;;;;;23.65;40.03;100031.41;5022871;28;20413;-72
2023/06/07 06:53:17;;;;;;;4.97;2.35;;;;;;;23.58;39.54;100030.78;5028923;28;20052;-73
2023/06/07 06:55:47;;;;;;;6.93;1.70;;;;;;;23.50;40.23;100022.28;5027682;28;20053;-72
2023/06/07 06:58:16;;;;;;;4.70;2.00;;;;;;;23.47;40.06;100017.09;5028257;28;20107;-72
2023/06/07 07:00:44;;;;;;;6.55;2.10;;;;;;;23.44;41.06;100027.78;5025326;28;20576;-72
2023/06/07 07:03:13;;;;;;;5.10;1.90;;;;;;;23.36;41.79;100028.03;5028842;28;20116;-72
2023/06/07 07:05:41;;;;;;;3.97;1.60;;;;;;;23.28;42.55;100022.16;5030471;28;20041;-72
2023/06/07 07:08:17;;;;;;;5.70;1.98;;;;;;;23.19;42.93;100025.97;5025976;28;20454;-73
2023/06/07 07:10:47;;;;;;;5.22;1.98;;;;;;;23.13;42.27;100033.22;5029849;28;20057;-73
2023/06/07 07:13:16;;;;;;;3.90;1.90;;;;;;;23.01;44.55;100034.50;5029143;28;20444;-74
2023/06/07 07:15:44;;;;;;;3.58;1.88;;;;;;;22.82;43.61;100036.00;5030487;28;20124;-72
2023/06/07 07:18:15;;;;;;;3.22;1.70;;;;;;;22.71;43.72;100042.47;5030278;28;20056;-72
2023/06/07 07:20:45;;;;;;;4.70;1.85;;;;;;;22.69;44.46;100048.72;5030015;28;20072;-73
2023/06/07 07:23:16;;;;;;;8.43;2.00;;;;;;;22.68;43.27;100050.50;5029249;28;20495;-72
2023/06/07 07:25:45;;;;;;;5.10;1.80;;;;;;;22.63;45.51;100057.69;5026404;28;20134;-72
2023/06/07 07:28:14;;;;;;;3.92;1.60;;;;;;;22.51;45.45;100060.69;5024972;28;20057;-72
2023/06/07 07:30:42;;;;;;;3.65;1.80;;;;;;;22.41;45.64;100056.63;5020058;28;20069;-72
2023/06/07 07:33:11;;;;;;;3.13;1.40;;;;;;;22.35;44.40;100058.53;5018783;28;20102;-72
2023/06/07 07:35:39;;;;;;;3.85;1.33;;;;;;;22.28;45.32;100053.50;5025839;28;20049;-72
2023/06/07 07:38:07;;;;;;;5.88;1.98;;;;;;;22.20;44.85;100056.34;5021273;28;20616;-72
2023/06/07 07:40:38;;;;;;;5.00;1.90;;;;;;;22.12;44.84;100055.69;5026684;28;20123;-72
2023/06/07 07:43:06;;;;;;;4.25;1.80;;;;;;;22.02;44.34;100062.13;5025759;28;20569;-72
2023/06/07 07:45:35;;;;;;;3.80;2.03;;;;;;;21.88;44.25;100050.22;5026089;28;20111;-72
2023/06/07 07:48:03;;;;;;;7.90;1.40;;;;;;;21.86;45.37;100056.44;5026505;28;20480;-71
2023/06/07 07:50:32;;;;;;;1.52;1.10;;;;;;;21.79;45.39;100066.28;5032049;28;20503;-71
2023/06/07 07:53:01;;;;;;;2.92;1.73;;;;;;;21.73;45.38;100062.03;5032597;28;20773;-71
2023/06/07 07:55:30;;;;;;;3.10;2.30;;;;;;;21.66;45.08;100071.00;5028608;28;20152;-71
2023/06/07 07:58:00;;;;;;;4.80;1.67;;;;;;;21.58;45.08;100067.75;5027687;28;20053;-72
2023/06/07 08:00:29;;;;;;;3.22;1.45;;;;;;;21.52;44.69;100063.47;5027784;28;20071;-72
2023/06/07 08:02:58;;;;;;;4.35;1.95;;;;;;;21.46;45.52;100068.03;5025923;28;20045;-72
2023/06/07 08:05:26;;;;;;;2.28;1.50;;;;;;;21.32;46.18;100081.53;5025819;28;20487;-73
2023/06/07 08:07:58;;;;;;;5.38;2.10;;;;;;;21.17;47.54;100097.72;5022601;28;20056;-71
2023/06/07 08:10:27;;;;;;;3.85;1.95;;;;;;;21.12;47.48;100101.31;5021553;28;20057;-73
2023/06/07 08:12:55;;;;;;;3.00;1.70;;;;;;;21.13;47.74;100094.28;5016703;28;20462;-74
2023/06/07 08:15:28;;;;;;;5.95;1.58;;;;;;;21.13;47.83;100097.78;5027956;28;20041;-73
2023/06/07 08:17:56;;;;;;;3.85;1.95;;;;;;;21.00;47.85;100106.84;5028699;28;20116;-73
2023/06/07 08:20:25;;;;;;;4.15;1.90;;;;;;;20.86;48.27;100107.19;5027358;28;20557;-71
2023/06/07 08:22:54;;;;;;;4.43;2.25;;;;;;;20.83;48.81;100111.66;5029228;28;20538;-73
2023/06/07 08:25:22;;;;;;;3.60;1.80;;;;;;;20.75;48.28;100114.44;5027369;28;20088;-71
2023/06/07 08:27:51;;;;;;;4.28;1.90;;;;;;;20.63;48.50;100110.34;5002091;28;20054;-73
2023/06/07 08:30:20;;;;;;;3.13;1.40;;;;;;;20.54;49.49;100123.66;5007713;28;20952;-73
2023/06/07 08:32:50;;;;;;;4.88;1.35;;;;;;;20.48;50.54;100121.16;4992413;28;20109;-71
2023/06/07 08:35:19;;;;;;;2.38;1.40;;;;;;;20.44;50.28;100119.50;5004368;28;20050;-71
2023/06/07 08:37:47;;;;;;;2.63;1.75;;;;;;;20.40;50.58;100130.97;4998270;28;20496;-71
2023/06/07 08:40:19;;;;;;;7.30;1.73;;;;;;;20.36;50.79;100137.16;5003293;28;20054;-71
2023/06/07 08:42:47;;;;;;;11.57;1.98;;;;;;;20.21;51.20;100141.84;5002129;28;20518;-71
2023/06/07 08:45:17;;;;;;;5.00;1.80;;;;;;;20.10;51.67;100146.44;5006023;28;20049;-73
2023/06/07 08:47:46;;;;;;;4.28;1.50;;;;;;;20.03;52.69;100153.56;5003125;28;20050;-73
2023/06/07 08:50:20;;;;;;;3.15;1.48;;;;;;;19.93;52.59;100145.88;5005940;28;20085;-72
2023/06/07 08:52:52;;;;;;;4.38;1.88;;;;;;;19.88;52.53;100157.38;4999905;28;20057;-72
2023/06/07 08:55:21;;;;;;;5.68;1.70;;;;;;;19.84;52.64;100166.19;5009477;28;20050;-73
2023/06/07 08:57:52;;;;;;;3.10;1.83;;;;;;;19.81;52.64;100168.88;5001702;28;20050;-72
2023/06/07 09:00:25;;;;;;;4.72;1.48;;;;;;;19.80;52.39;100171.53;5011018;28;20057;-72
2023/06/07 09:02:54;;;;;;;1.77;1.45;;;;;;;19.77;52.33;100177.69;4997062;28;20100;-73
2023/06/07 09:05:24;;;;;;;3.67;1.63;;;;;;;19.72;52.80;100176.88;5001405;28;20077;-72
2023/06/07 09:07:54;;;;;;;4.13;1.45;;;;;;;19.70;53.41;100183.94;5001886;28;20496;-72
2023/06/07 09:10:22;;;;;;;5.95;2.10;;;;;;;19.65;52.95;100180.47;5002427;28;20125;-71
2023/06/07 09:12:54;;;;;;;3.60;1.50;;;;;;;19.61;53.06;100186.69;4992333;28;20050;-73
2023/06/07 09:15:23;;;;;;;3.00;1.33;;;;;;;19.56;53.53;100199.88;4994949;28;20057;-73
2023/06/07 09:17:55;;;;;;;2.22;1.67;;;;;;;19.50;54.30;100202.59;5005235;28;20049;-71
2023/06/07 09:20:25;;;;;;;;;;;;;;;19.40;55.14;100196.66;5006202;28;20310;-71
2023/06/07 09:23:02;;;;;;;3.15;1.40;;;;;;;19.35;55.57;100211.56;5007637;28;19925;-71
2023/06/07 09:25:32;;;;;;;5.78;1.77;;;;;;;19.31;55.99;100204.66;5005352;28;20074;-71
2023/06/07 09:28:11;;;;;;;3.92;1.23;;;;;;;19.26;56.18;100201.22;5014213;28;20800;-72
2023/06/07 09:30:55;;;;;;;2.95;1.40;;;;;;;19.23;56.07;100204.75;5001999;28;20169;-71
2023/06/07 09:33:30;;;;;;;2.10;1.30;;;;;;;19.19;57.38;100210.06;5006969;28;20058;-71
2023/06/07 09:36:08;;;;;;;3.60;1.75;;;;;;;19.14;57.90;100214.53;4997680;28;20126;-70
2023/06/07 09:38:37;;;;;;;4.53;1.40;;;;;;;19.08;56.22;100220.72;5004745;28;20054;-71
2023/06/07 09:41:06;;;;;;;3.67;1.48;;;;;;;19.02;56.52;100216.41;5004294;28;20061;-71
2023/06/07 09:43:46;;;;;;;5.75;1.83;;;;;;;18.97;59.00;100223.50;5009597;28;20547;-71
2023/06/07 09:46:15;;;;;;;4.28;1.90;;;;;;;18.86;58.68;100221.91;5009896;28;20086;-71
2023/06/07 09:48:49;;;;;;;2.75;1.10;;;;;;;18.79;58.33;100221.13;5012037;28;20496;-72
2023/06/07 09:51:20;;;;;;;2.10;1.30;;;;;;;18.72;59.06;100201.09;5008244;28;20046;-71
2023/06/07 09:53:57;;;;;;;4.68;1.70;;;;;;;18.75;59.78;100208.91;5009463;28;20050;-71
2023/06/07 09:56:28;;;;;;;5.80;1.35;;;;;;;18.71;60.16;100218.53;5007075;28;20727;-72
2023/06/07 09:59:08;;;;;;;4.57;1.42;;;;;;;18.57;59.19;100213.47;5012234;28;20046;-72
2023/06/07 10:01:38;;;;;;;4.97;1.65;;;;;;;18.48;59.48;100216.19;5012191;28;20100;-72
2023/06/07 10:04:07;;;;;;;3.55;1.65;;;;;;;18.37;58.93;100220.69;5006295;28;20061;-72
2023/06/07 10:06:40;;;;;;;4.55;1.38;;;;;;;18.32;58.74;100222.50;5010576;28;20049;-72
2023/06/07 10:09:09;;;;;;;1.60;1.13;;;;;;;18.23;58.04;100215.59;5009372;28;20049;-73
2023/06/07 10:11:39;;;;;;;2.65;1.30;;;;;;;18.19;58.16;100212.16;5009860;28;20050;-73
2023/06/07 10:14:11;;;;;;;2.70;1.45;;;;;;;18.16;57.60;100214.81;5004098;28;20047;-72
2023/06/07 10:16:48;;;;;;;3.95;1.40;;;;;;;18.07;57.96;100233.22;5001475;28;20049;-72
2023/06/07 10:19:22;;;;;;;3.45;1.33;;;;;;;17.98;57.50;100235.91;4999080;28;20491;-73
2023/06/07 10:21:55;;;;;;;2.45;1.35;;;;;;;17.91;57.57;100236.84;5017436;28;20053;-73
2023/06/07 10:24:25;;;;;;;;;;;;;;;17.88;57.88;100247.34;5004805;28;20050;-73
2023/06/07 10:26:56;;;;;;;5.68;1.40;;;;;;;17.85;56.34;100250.88;5009872;28;19932;-72
2023/06/07 10:29:34;;;;;;;4.13;1.88;;;;;;;17.78;56.64;100260.50;5025958;28;20050;-70
2023/06/07 10:32:10;;;;;;;4.30;1.60;;;;;;;17.65;56.29;100263.22;5024087;28;20042;-70
2023/06/07 10:34:40;;;;;;;2.83;1.20;;;;;;;17.57;56.02;100264.13;5023668;28;20453;-71
2023/06/07 10:37:11;;;;;;;4.90;1.48;;;;;;;17.52;55.41;100265.94;5027956;28;20046;-70
2023/06/07 10:39:40;;;;;;;4.22;1.55;;;;;;;17.48;55.55;100266.81;5040836;28;20049;-70
2023/06/07 10:42:09;;;;;;;2.75;1.40;;;;;;;17.41;55.85;100270.34;5034078;28;20154;-72
2023/06/07 10:44:39;;;;;;;3.08;1.25;;;;;;;17.37;57.12;100284.31;5029051;28;20049;-73
2023/06/07 10:47:26;;;;;;;8.32;1.85;;;;;;;17.29;57.11;100283.47;5027239;28;20049;-72
2023/06/07 10:49:55;;;;;;;5.18;1.60;;;;;;;17.23;55.88;100276.56;5027666;28;20124;-72
2023/06/07 10:52:27;;;;;;;3.17;1.13;;;;;;;17.24;54.05;100287.88;5024617;28;20542;-71
2023/06/07 10:54:57;;;;;;;1.58;0.90;;;;;;;17.23;53.44;100279.16;5027914;28;20136;-72
2023/06/07 10:57:37;;;;;;;3.00;1.23;;;;;;;17.21;53.40;100283.53;5023887;28;20045;-72
2023/06/07 11:00:28;;;;;;;5.00;1.95;;;;;;;17.18;52.82;100299.25;5016342;28;20058;-72
2023/06/07 11:03:43;;;;;;;2.80;1.20;;;;;;;17.09;57.69;100310.63;5022432;28;20050;-72
2023/06/07 11:06:12;;;;;;;4.18;1.17;;;;;;;17.02;56.86;100315.84;4981832;28;20046;-72
2023/06/07 11:08:43;;;;;;;3.63;1.88;;;;;;;16.94;54.46;100326.34;5026875;28;20060;-72
2023/06/07 11:11:51;;;;;;;4.78;1.00;;;;;;;16.90;55.38;100325.47;5024273;28;20571;-72
2023/06/07 11:14:20;;;;;;;3.65;1.45;;;;;;;16.88;53.92;100327.25;5014259;28;20128;-71
2023/06/07 11:16:50;;;;;;;4.10;1.33;;;;;;;16.89;56.20;100339.44;5024705;28;20041;-71
2023/06/07 11:19:19;;;;;;;2.35;1.20;;;;;;;16.88;56.56;100342.94;5031669;28;20192;-73
2023/06/07 11:22:08;;;;;;;3.25;1.50;;;;;;;16.85;56.07;100347.28;5022595;28;20401;-71
2023/06/07 11:24:41;;;;;;;5.90;1.23;;;;;;;16.81;56.84;100348.16;5024204;28;20129;-73
2023/06/07 11:27:14;;;;;;;10.15;1.40;;;;;;;16.77;56.96;100352.50;5020698;28;20504;-73
2023/06/07 11:29:46;;;;;;;6.38;1.55;;;;;;;16.71;57.22;100365.56;5002519;28;20043;-73
2023/06/07 11:32:15;;;;;;;4.05;1.65;;;;;;;16.64;57.10;100364.72;5007525;28;20045;-73
2023/06/07 11:34:56;;;;;;;3.90;1.40;;;;;;;16.62;57.19;100370.81;5009844;28;20038;-73
2023/06/07 11:37:32;;;;;;;5.05;1.60;;;;;;;16.58;57.13;100374.28;5008264;28;20081;-73
2023/06/07 11:40:04;;;;;;;2.85;1.20;;;;;;;16.53;58.65;100377.78;5001004;28;20056;-73
2023/06/07 11:42:32;;;;;;;3.75;1.42;;;;;;;16.47;59.02;100388.25;5007800;28;20495;-72
2023/06/07 11:45:04;;;;;;;7.75;1.80;;;;;;;16.44;59.99;100390.84;4994477;28;20278;-72
2023/06/07 11:47:35;;;;;;;8.35;2.03;;;;;;;16.41;59.29;100390.84;5008885;28;20143;-73